createdAt,value
2023-05-14T00:00:30.676Z,8.82
2023-05-14T00:02:57.852Z,9.43
2023-05-14T00:05:25.198Z,12.18
2023-05-14T00:07:52.226Z,8.85
2023-05-14T00:10:20.891Z,8.35
2023-05-14T00:12:48.157Z,8.18
2023-05-14T00:15:15.386Z,8.32
2023-05-14T00:17:42.841Z,7.82
2023-05-14T00:20:12.205Z,7.40
2023-05-14T00:22:39.937Z,7.38
2023-05-14T00:25:08.257Z,7.13
2023-05-14T00:27:37.882Z,6.55
2023-05-14T00:30:07.187Z,7.03
2023-05-14T00:32:34.418Z,12.88
2023-05-14T00:35:03.253Z,8.93
2023-05-14T00:37:30.718Z,8.05
2023-05-14T00:39:58.924Z,7.55
2023-05-14T00:42:27.231Z,8.50
2023-05-14T00:44:54.314Z,8.57
2023-05-14T00:47:21.425Z,8.50
2023-05-14T00:49:48.605Z,7.15
2023-05-14T00:52:16.971Z,7.28
2023-05-14T00:54:46.080Z,9.38
2023-05-14T00:57:13.303Z,7.88
2023-05-14T00:59:41.978Z,7.70
2023-05-14T01:02:09.111Z,7.72
2023-05-14T01:04:36.379Z,8.10
2023-05-14T01:07:45.016Z,7.72
2023-05-14T01:10:36.071Z,8.52
2023-05-14T01:13:18.652Z,7.35
2023-05-14T01:15:48.010Z,9.95
2023-05-14T01:18:19.250Z,9.73
2023-05-14T01:20:46.499Z,9.52
2023-05-14T01:23:13.542Z,9.48
2023-05-14T01:25:41.610Z,8.07
2023-05-14T01:28:20.621Z,8.20
2023-05-14T01:31:10.614Z,8.43
2023-05-14T01:33:41.856Z,7.88
2023-05-14T01:36:10.051Z,7.25
2023-05-14T01:38:38.618Z,8.20
2023-05-14T01:41:06.383Z,7.15
2023-05-14T01:43:34.045Z,7.63
2023-05-14T01:46:01.551Z,6.95
2023-05-14T01:48:30.109Z,7.47
2023-05-14T01:50:57.258Z,6.60
2023-05-14T01:53:24.629Z,7.72
2023-05-14T01:55:51.888Z,8.43
2023-05-14T01:58:20.063Z,8.07
2023-05-14T02:00:47.386Z,8.30
2023-05-14T02:03:16.010Z,7.63
2023-05-14T02:05:42.977Z,7.13
2023-05-14T02:08:10.763Z,5.63
2023-05-14T02:10:37.937Z,6.97
2023-05-14T02:13:05.140Z,7.18
2023-05-14T02:15:32.196Z,6.38
2023-05-14T02:17:59.363Z,7.63
2023-05-14T02:20:26.595Z,8.60
2023-05-14T02:22:53.570Z,7.25
2023-05-14T02:25:21.216Z,7.57
2023-05-14T02:27:48.592Z,9.52
2023-05-14T02:30:15.774Z,7.78
2023-05-14T02:32:44.000Z,8.10
2023-05-14T02:35:11.160Z,7.53
2023-05-14T02:37:38.511Z,7.18
2023-05-14T02:40:06.658Z,7.05
2023-05-14T02:42:34.041Z,8.80
2023-05-14T02:45:01.222Z,7.60
2023-05-14T02:47:28.399Z,8.20
2023-05-14T02:49:55.516Z,7.85
2023-05-14T02:52:22.635Z,7.40
2023-05-14T02:54:49.785Z,7.93
2023-05-14T02:57:16.807Z,7.10
2023-05-14T02:59:43.932Z,7.57
2023-05-14T03:02:11.235Z,8.25
2023-05-14T03:04:38.813Z,7.78
2023-05-14T03:07:06.150Z,8.52
2023-05-14T03:09:33.673Z,7.35
2023-05-14T03:12:01.365Z,8.13
2023-05-14T03:14:28.569Z,6.28
2023-05-14T03:16:55.689Z,6.43
2023-05-14T03:19:22.853Z,6.50
2023-05-14T03:21:50.321Z,6.93
2023-05-14T03:24:17.470Z,7.40
2023-05-14T03:26:44.611Z,6.93
2023-05-14T03:29:11.736Z,6.40
2023-05-14T03:31:38.747Z,7.63
2023-05-14T03:34:06.139Z,8.50
2023-05-14T03:36:34.305Z,7.00
2023-05-14T03:39:01.457Z,9.40
2023-05-14T03:41:28.479Z,6.75
2023-05-14T03:43:55.831Z,7.50
2023-05-14T03:46:22.908Z,8.15
2023-05-14T03:48:50.241Z,9.20
2023-05-14T03:51:17.448Z,8.10
2023-05-14T03:53:44.719Z,8.70
2023-05-14T03:56:13.303Z,7.18
2023-05-14T03:58:40.844Z,8.38
2023-05-14T04:01:07.839Z,9.27
2023-05-14T04:03:35.169Z,8.50
2023-05-14T04:06:02.388Z,9.02
2023-05-14T04:08:29.574Z,6.45
2023-05-14T04:10:56.954Z,6.70
2023-05-14T04:13:24.134Z,7.10
2023-05-14T04:15:51.417Z,7.15
2023-05-14T04:18:18.845Z,7.18
2023-05-14T04:20:45.927Z,7.35
2023-05-14T04:23:13.140Z,7.05
2023-05-14T04:25:40.178Z,6.63
2023-05-14T04:28:07.363Z,6.38
2023-05-14T04:30:34.404Z,6.25
2023-05-14T04:33:01.551Z,7.03
2023-05-14T04:35:28.814Z,6.75
2023-05-14T04:37:56.106Z,6.47
2023-05-14T04:40:23.389Z,7.07
2023-05-14T04:42:51.807Z,11.15
2023-05-14T04:45:19.361Z,8.05
2023-05-14T04:47:46.911Z,6.88
2023-05-14T04:50:14.475Z,7.55
2023-05-14T04:52:41.821Z,6.85
2023-05-14T04:55:09.430Z,8.30
2023-05-14T04:57:36.542Z,8.73
2023-05-14T05:00:06.006Z,8.38
2023-05-14T05:02:34.967Z,7.88
2023-05-14T05:05:02.555Z,8.20
2023-05-14T05:07:29.689Z,7.57
2023-05-14T05:09:56.735Z,6.28
2023-05-14T05:12:23.935Z,6.50
2023-05-14T05:14:51.132Z,6.93
2023-05-14T05:17:18.101Z,6.35
2023-05-14T05:19:45.208Z,6.20
2023-05-14T05:22:12.343Z,6.70
2023-05-14T05:24:39.354Z,6.15
2023-05-14T05:27:06.487Z,6.55
2023-05-14T05:29:35.642Z,5.82
2023-05-14T05:32:02.679Z,6.25
2023-05-14T05:34:29.919Z,6.90
2023-05-14T05:36:57.093Z,5.38
2023-05-14T05:39:24.135Z,6.13
2023-05-14T05:41:51.216Z,6.40
2023-05-14T05:44:18.253Z,6.05
2023-05-14T05:46:45.340Z,6.30
2023-05-14T05:49:12.380Z,8.15
2023-05-14T05:51:39.502Z,8.15
2023-05-14T05:54:06.481Z,8.68
2023-05-14T05:56:33.570Z,6.30
2023-05-14T05:59:00.656Z,6.40
2023-05-14T06:01:29.657Z,6.78
2023-05-14T06:03:57.140Z,8.52
2023-05-14T06:06:24.341Z,7.00
2023-05-14T06:08:51.388Z,7.72
2023-05-14T06:11:18.457Z,11.90
2023-05-14T06:13:45.508Z,16.58
2023-05-14T06:16:12.588Z,14.18
2023-05-14T06:18:39.663Z,17.73
2023-05-14T06:21:06.785Z,17.35
2023-05-14T06:23:34.002Z,19.30
2023-05-14T06:26:01.130Z,16.42
2023-05-14T06:28:28.393Z,12.32
2023-05-14T06:30:56.062Z,11.63
2023-05-14T06:33:29.838Z,9.88
2023-05-14T06:36:01.127Z,9.20
2023-05-14T06:38:28.255Z,8.30
2023-05-14T06:40:55.399Z,9.23
2023-05-14T06:43:22.505Z,8.00
2023-05-14T06:45:52.842Z,8.98
2023-05-14T06:48:20.454Z,9.10
2023-05-14T06:50:48.613Z,7.53
2023-05-14T06:53:16.213Z,9.85
2023-05-14T06:55:43.378Z,10.30
2023-05-14T06:58:10.607Z,10.05
2023-05-14T07:00:37.746Z,9.77
2023-05-14T07:03:05.025Z,8.68
2023-05-14T07:05:32.463Z,9.43
2023-05-14T07:07:59.869Z,9.15
2023-05-14T07:10:26.965Z,8.48
2023-05-14T07:12:54.002Z,11.95
2023-05-14T07:15:21.413Z,11.93
2023-05-14T07:17:48.576Z,9.75
2023-05-14T07:20:15.666Z,11.95
2023-05-14T07:22:42.744Z,12.45
2023-05-14T07:25:10.193Z,10.90
2023-05-14T07:27:37.205Z,10.10
2023-05-14T07:30:04.642Z,9.90
2023-05-14T07:32:31.676Z,10.23
2023-05-14T07:34:58.921Z,9.90
2023-05-14T07:37:26.308Z,9.85
2023-05-14T07:39:53.896Z,8.88
2023-05-14T07:42:34.415Z,9.65
2023-05-14T07:45:02.865Z,10.18
2023-05-14T07:47:30.126Z,10.32
2023-05-14T07:49:57.848Z,11.48
2023-05-14T07:52:25.154Z,9.73
2023-05-14T07:54:52.561Z,13.68
2023-05-14T07:57:20.130Z,10.32
2023-05-14T07:59:48.754Z,12.40
2023-05-14T08:02:18.718Z,12.43
2023-05-14T08:04:45.862Z,15.90
2023-05-14T08:07:13.149Z,14.57
2023-05-14T08:09:40.357Z,12.98
2023-05-14T08:12:07.850Z,12.38
2023-05-14T08:14:34.958Z,13.07
2023-05-14T08:17:02.293Z,12.27
2023-05-14T08:19:29.612Z,13.50
2023-05-14T08:21:56.709Z,13.10
2023-05-14T08:24:23.801Z,9.57
2023-05-14T08:26:50.935Z,8.18
2023-05-14T08:29:18.043Z,8.43
2023-05-14T08:31:45.015Z,7.22
2023-05-14T08:34:12.126Z,8.43
2023-05-14T08:36:39.549Z,10.38
2023-05-14T08:39:07.962Z,11.93
2023-05-14T08:41:35.296Z,11.13
2023-05-14T08:44:15.522Z,10.50
2023-05-14T08:46:42.562Z,11.10
2023-05-14T08:49:40.997Z,9.68
2023-05-14T08:52:09.686Z,8.90
2023-05-14T08:54:36.974Z,9.40
2023-05-14T08:57:05.623Z,8.65
2023-05-14T08:59:33.012Z,7.72
2023-05-14T09:02:03.159Z,8.93
2023-05-14T09:04:31.589Z,8.55
2023-05-14T09:07:01.678Z,9.00
2023-05-14T09:09:29.221Z,11.85
2023-05-14T09:11:56.419Z,9.07
2023-05-14T09:14:24.207Z,7.82
2023-05-14T09:16:52.082Z,7.38
2023-05-14T09:19:19.772Z,7.72
2023-05-14T09:21:48.023Z,9.60
2023-05-14T09:24:23.150Z,12.68
2023-05-14T09:26:52.765Z,13.15
2023-05-14T09:29:20.098Z,9.55
2023-05-14T09:31:51.927Z,11.32
2023-05-14T09:34:32.721Z,9.10
2023-05-14T09:37:05.304Z,8.18
2023-05-14T09:39:33.677Z,8.32
2023-05-14T09:42:01.342Z,8.57
2023-05-14T09:44:28.960Z,10.57
2023-05-14T09:46:56.694Z,9.35
2023-05-14T09:49:23.815Z,9.48
2023-05-14T09:51:51.512Z,10.05
2023-05-14T09:54:18.852Z,10.68
2023-05-14T09:56:45.990Z,9.95
2023-05-14T09:59:13.402Z,9.80
2023-05-14T10:01:44.331Z,12.85
2023-05-14T10:04:12.782Z,12.50
2023-05-14T10:06:42.250Z,13.30
2023-05-14T10:09:19.551Z,10.98
2023-05-14T10:11:52.881Z,8.88
2023-05-14T10:14:43.338Z,8.30
2023-05-14T10:17:18.427Z,7.70
2023-05-14T10:19:54.188Z,9.55
2023-05-14T10:22:24.675Z,11.23
2023-05-14T10:24:52.812Z,7.70
2023-05-14T10:27:23.689Z,9.43
2023-05-14T10:29:55.777Z,8.13
2023-05-14T10:32:26.345Z,9.77
2023-05-14T10:34:54.089Z,12.32
2023-05-14T10:37:24.362Z,12.30
2023-05-14T10:39:56.592Z,9.45
2023-05-14T10:42:40.919Z,9.15
2023-05-14T10:45:10.476Z,10.80
2023-05-14T10:47:43.058Z,10.43
2023-05-14T10:50:15.173Z,9.75
2023-05-14T10:52:43.792Z,9.95
2023-05-14T10:55:14.527Z,10.85
2023-05-14T10:57:45.280Z,12.82
2023-05-14T11:00:14.670Z,17.13
2023-05-14T11:02:44.030Z,10.35
2023-05-14T11:05:17.430Z,9.98
2023-05-14T11:07:47.561Z,10.80
2023-05-14T11:10:14.822Z,14.60
2023-05-14T11:12:50.321Z,13.73
2023-05-14T11:15:26.379Z,22.27
2023-05-14T11:17:54.431Z,17.33
2023-05-14T11:20:22.079Z,12.60
2023-05-14T11:22:51.910Z,12.27
2023-05-14T11:25:19.186Z,10.45
2023-05-14T11:27:48.161Z,10.90
2023-05-14T11:30:20.002Z,11.30
2023-05-14T11:32:49.337Z,8.98
2023-05-14T11:35:17.865Z,11.48
2023-05-14T11:37:52.441Z,10.35
2023-05-14T11:40:20.077Z,11.02
2023-05-14T11:42:47.352Z,11.13
2023-05-14T11:45:24.481Z,9.93
2023-05-14T11:47:53.075Z,10.88
2023-05-14T11:50:22.121Z,9.32
2023-05-14T11:52:50.929Z,9.85
2023-05-14T11:55:18.310Z,9.77
2023-05-14T11:57:45.576Z,9.15
2023-05-14T12:00:21.787Z,8.95
2023-05-14T12:02:50.232Z,9.65
2023-05-14T12:05:17.660Z,9.52
2023-05-14T12:07:45.864Z,8.63
2023-05-14T12:10:13.891Z,7.38
2023-05-14T12:12:41.497Z,8.02
2023-05-14T12:15:13.614Z,9.57
2023-05-14T12:17:40.931Z,9.70
2023-05-14T12:20:12.589Z,9.50
2023-05-14T12:22:42.528Z,9.05
2023-05-14T12:25:14.180Z,10.00
2023-05-14T12:27:44.921Z,9.27
2023-05-14T12:30:21.190Z,9.23
2023-05-14T12:32:51.901Z,9.40
2023-05-14T12:35:19.502Z,8.73
2023-05-14T12:37:46.781Z,9.43
2023-05-14T12:40:14.099Z,10.00
2023-05-14T12:42:41.209Z,10.75
2023-05-14T12:45:08.862Z,9.40
2023-05-14T12:47:37.293Z,10.98
2023-05-14T12:50:05.060Z,8.40
2023-05-14T12:52:38.533Z,9.70
2023-05-14T12:55:08.354Z,10.68
2023-05-14T12:57:35.913Z,11.55
2023-05-14T13:00:07.159Z,13.52
2023-05-14T13:02:42.184Z,16.48
2023-05-14T13:05:12.924Z,12.30
2023-05-14T13:07:40.307Z,11.43
2023-05-14T13:10:08.327Z,13.40
2023-05-14T13:12:35.799Z,15.32
2023-05-14T13:15:02.876Z,12.20
2023-05-14T13:17:30.638Z,11.55
2023-05-14T13:19:57.875Z,11.57
2023-05-14T13:22:25.034Z,12.13
2023-05-14T13:24:52.079Z,10.50
2023-05-14T13:27:19.281Z,12.20
2023-05-14T13:29:46.516Z,13.07
2023-05-14T13:32:13.585Z,12.88
2023-05-14T13:34:40.750Z,12.20
2023-05-14T13:37:07.839Z,18.05
2023-05-14T13:39:34.889Z,19.88
2023-05-14T13:42:02.031Z,18.90
2023-05-14T13:44:29.565Z,14.25
2023-05-14T13:46:56.708Z,15.02
2023-05-14T13:49:23.925Z,11.23
2023-05-14T13:51:51.147Z,11.95
2023-05-14T13:54:18.403Z,16.48
2023-05-14T13:56:45.619Z,18.20
2023-05-14T13:59:15.724Z,15.27
2023-05-14T14:01:43.528Z,11.90
2023-05-14T14:04:11.089Z,12.50
2023-05-14T14:06:38.219Z,12.60
2023-05-14T14:09:05.280Z,13.13
2023-05-14T14:11:32.707Z,11.88
2023-05-14T14:13:59.842Z,13.07
2023-05-14T14:16:27.049Z,13.15
2023-05-14T14:18:54.254Z,10.43
2023-05-14T14:21:21.342Z,11.32
2023-05-14T14:23:49.127Z,10.05
2023-05-14T14:26:16.329Z,10.23
2023-05-14T14:28:43.676Z,9.70
2023-05-14T14:31:11.620Z,11.30
2023-05-14T14:33:38.894Z,9.98
2023-05-14T14:36:06.913Z,9.68
2023-05-14T14:38:33.983Z,9.45
2023-05-14T14:41:03.379Z,9.20
2023-05-14T14:43:30.516Z,10.93
2023-05-14T14:45:57.949Z,10.18
2023-05-14T14:48:39.908Z,9.38
2023-05-14T14:51:08.310Z,8.88
2023-05-14T14:53:37.278Z,10.68
2023-05-14T14:56:04.994Z,10.38
2023-05-14T14:58:32.326Z,10.52
2023-05-14T15:01:01.317Z,10.40
2023-05-14T15:03:29.105Z,10.80
2023-05-14T15:05:56.334Z,10.85
2023-05-14T15:08:27.964Z,12.27
2023-05-14T15:10:56.407Z,12.40
2023-05-14T15:13:24.299Z,13.27
2023-05-14T15:15:52.838Z,14.45
2023-05-14T15:18:21.429Z,13.53
2023-05-14T15:20:49.109Z,13.30
2023-05-14T15:23:16.434Z,15.82
2023-05-14T15:25:43.679Z,18.98
2023-05-14T15:28:11.147Z,20.38
2023-05-14T15:30:38.496Z,19.50
2023-05-14T15:33:08.116Z,18.67
2023-05-14T15:35:35.223Z,16.05
2023-05-14T15:38:04.078Z,17.33
2023-05-14T15:40:31.298Z,16.65
2023-05-14T15:42:58.292Z,14.45
2023-05-14T15:45:25.423Z,15.60
2023-05-14T15:47:52.552Z,13.65
2023-05-14T15:50:20.643Z,12.23
2023-05-14T15:52:48.488Z,11.48
2023-05-14T15:55:15.922Z,13.38
2023-05-14T15:57:43.150Z,15.50
2023-05-14T16:00:11.204Z,12.82
2023-05-14T16:02:40.200Z,10.57
2023-05-14T16:05:08.732Z,12.38
2023-05-14T16:07:36.496Z,15.23
2023-05-14T16:10:04.181Z,17.42
2023-05-14T16:12:31.254Z,13.77
2023-05-14T16:14:58.606Z,11.00
2023-05-14T16:17:27.824Z,10.40
2023-05-14T16:19:56.489Z,9.93
2023-05-14T16:22:23.777Z,9.80
2023-05-14T16:24:51.151Z,10.25
2023-05-14T16:27:21.001Z,10.93
2023-05-14T16:29:48.093Z,10.88
2023-05-14T16:32:15.338Z,9.95
2023-05-14T16:34:47.527Z,9.52
2023-05-14T16:37:15.219Z,9.90
2023-05-14T16:39:42.813Z,11.13
2023-05-14T16:42:09.961Z,10.70
2023-05-14T16:44:37.009Z,10.60
2023-05-14T16:47:04.756Z,10.90
2023-05-14T16:49:31.901Z,9.18
2023-05-14T16:51:58.914Z,10.70
2023-05-14T16:54:26.213Z,9.70
2023-05-14T16:56:53.244Z,12.10
2023-05-14T16:59:20.488Z,12.77
2023-05-14T17:01:48.299Z,11.00
2023-05-14T17:04:16.155Z,11.52
2023-05-14T17:06:43.362Z,9.57
2023-05-14T17:09:10.735Z,9.77
2023-05-14T17:11:37.770Z,9.23
2023-05-14T17:14:05.080Z,10.27
2023-05-14T17:16:32.135Z,8.90
2023-05-14T17:18:59.461Z,10.60
2023-05-14T17:21:26.631Z,9.80
2023-05-14T17:23:53.920Z,9.13
2023-05-14T17:26:21.377Z,8.88
2023-05-14T17:28:51.255Z,10.07
2023-05-14T17:31:18.541Z,9.20
2023-05-14T17:33:45.812Z,10.85
2023-05-14T17:36:13.116Z,9.70
2023-05-14T17:38:41.598Z,9.07
2023-05-14T17:41:09.857Z,9.82
2023-05-14T17:43:36.852Z,8.93
2023-05-14T17:46:05.348Z,10.60
2023-05-14T17:48:32.466Z,9.32
2023-05-14T17:51:18.622Z,9.50
2023-05-14T17:53:46.447Z,10.93
2023-05-14T17:56:13.657Z,10.13
2023-05-14T17:58:41.509Z,12.27
2023-05-14T18:01:08.829Z,10.68
2023-05-14T18:03:36.408Z,10.75
2023-05-14T18:06:04.133Z,11.02
2023-05-14T18:08:31.436Z,11.38
2023-05-14T18:11:00.957Z,11.98
2023-05-14T18:13:28.407Z,10.93
2023-05-14T18:15:56.708Z,10.27
2023-05-14T18:18:31.665Z,10.70
2023-05-14T18:20:58.833Z,10.98
2023-05-14T18:23:25.909Z,13.10
2023-05-14T18:25:53.111Z,14.52
2023-05-14T18:28:21.577Z,14.43
2023-05-14T18:30:49.950Z,13.80
2023-05-14T18:33:17.163Z,13.13
2023-05-14T18:35:44.467Z,12.38
2023-05-14T18:38:13.884Z,10.77
2023-05-14T18:40:41.025Z,12.85
2023-05-14T18:43:08.007Z,10.13
2023-05-14T18:45:35.189Z,12.02
2023-05-14T18:48:02.292Z,11.20
2023-05-14T18:50:29.405Z,12.13
2023-05-14T18:52:57.942Z,14.13
2023-05-14T18:55:25.394Z,15.10
2023-05-14T18:57:52.979Z,13.60
2023-05-14T19:00:20.381Z,15.23
2023-05-14T19:02:47.509Z,15.88
2023-05-14T19:05:14.676Z,16.30
2023-05-14T19:07:43.081Z,14.75
2023-05-14T19:10:11.224Z,14.25
2023-05-14T19:12:38.350Z,13.60
2023-05-14T19:15:06.194Z,14.75
2023-05-14T19:17:33.425Z,15.07
2023-05-14T19:20:00.628Z,14.88
2023-05-14T19:22:27.775Z,14.80
2023-05-14T19:24:55.123Z,13.20
2023-05-14T19:27:24.303Z,13.75
2023-05-14T19:29:51.572Z,14.27
2023-05-14T19:32:18.821Z,12.82
2023-05-14T19:34:48.034Z,76.32
2023-05-14T19:37:16.137Z,30.48
2023-05-14T19:39:43.350Z,22.33
2023-05-14T19:42:10.596Z,21.85
2023-05-14T19:44:37.869Z,22.42
2023-05-14T19:47:05.573Z,20.45
2023-05-14T19:49:32.797Z,22.00
2023-05-14T19:51:59.909Z,20.45
2023-05-14T19:54:27.004Z,29.35
2023-05-14T19:56:54.840Z,20.85
2023-05-14T19:59:22.011Z,19.70
2023-05-14T20:01:49.025Z,21.15
2023-05-14T20:04:16.277Z,19.35
2023-05-14T20:06:45.658Z,18.92
2023-05-14T20:09:13.854Z,16.42
2023-05-14T20:11:41.043Z,16.23
2023-05-14T20:14:08.266Z,18.05
2023-05-14T20:16:36.082Z,18.25
2023-05-14T20:19:04.044Z,25.65
2023-05-14T20:21:32.068Z,24.35
2023-05-14T20:23:59.375Z,23.83
2023-05-14T20:26:26.706Z,21.55
2023-05-14T20:28:55.307Z,20.63
2023-05-14T20:31:22.463Z,28.15
2023-05-14T20:33:49.722Z,18.75
2023-05-14T20:36:17.135Z,21.67
2023-05-14T20:38:44.139Z,22.38
2023-05-14T20:41:12.337Z,21.65
2023-05-14T20:43:39.618Z,13.70
2023-05-14T20:46:07.494Z,13.32
2023-05-14T20:48:34.624Z,12.80
2023-05-14T20:51:02.039Z,12.40
2023-05-14T20:53:29.235Z,15.63
2023-05-14T20:55:56.455Z,13.95
2023-05-14T20:58:23.522Z,14.13
2023-05-14T21:00:50.676Z,12.20
2023-05-14T21:03:17.849Z,13.85
2023-05-14T21:05:45.083Z,13.55
2023-05-14T21:08:12.118Z,13.18
2023-05-14T21:10:39.278Z,11.85
2023-05-14T21:13:07.273Z,11.40
2023-05-14T21:15:34.464Z,11.20
2023-05-14T21:18:02.387Z,11.45
2023-05-14T21:20:29.560Z,10.88
2023-05-14T21:22:56.648Z,9.80
2023-05-14T21:25:24.015Z,10.07
2023-05-14T21:27:51.339Z,10.75
2023-05-14T21:30:18.570Z,9.35
2023-05-14T21:32:45.659Z,11.02
2023-05-14T21:35:12.683Z,10.88
2023-05-14T21:37:40.016Z,9.68
2023-05-14T21:40:12.444Z,9.38
2023-05-14T21:42:40.921Z,9.00
2023-05-14T21:45:08.361Z,8.80
2023-05-14T21:47:35.748Z,11.18
2023-05-14T21:50:02.853Z,13.00
2023-05-14T21:52:30.054Z,12.60
2023-05-14T21:54:57.109Z,11.73
2023-05-14T21:57:25.211Z,11.02
2023-05-14T21:59:53.750Z,10.50
2023-05-14T22:02:20.890Z,10.15
2023-05-14T22:04:48.022Z,10.82
2023-05-14T22:07:15.100Z,10.90
2023-05-14T22:09:42.113Z,12.48
2023-05-14T22:12:10.168Z,11.75
2023-05-14T22:14:37.220Z,12.07
2023-05-14T22:17:04.948Z,12.20
2023-05-14T22:19:32.100Z,14.20
2023-05-14T22:21:59.257Z,12.50
2023-05-14T22:24:26.295Z,13.13
2023-05-14T22:26:53.410Z,12.90
2023-05-14T22:29:20.585Z,11.90
2023-05-14T22:31:47.615Z,12.63
2023-05-14T22:34:14.857Z,14.73
2023-05-14T22:36:42.127Z,12.65
2023-05-14T22:39:11.193Z,12.25
2023-05-14T22:41:39.261Z,12.35
2023-05-14T22:44:06.328Z,13.63
2023-05-14T22:46:33.539Z,13.18
2023-05-14T22:49:00.546Z,18.00
2023-05-14T22:51:27.628Z,15.48
2023-05-14T22:53:54.724Z,13.80
2023-05-14T22:56:21.957Z,14.20
2023-05-14T22:58:49.136Z,13.75
2023-05-14T23:01:16.172Z,16.42
2023-05-14T23:03:43.196Z,16.67
2023-05-14T23:06:13.818Z,14.95
2023-05-14T23:08:41.029Z,15.32
2023-05-14T23:11:08.114Z,16.17
2023-05-14T23:13:35.386Z,14.20
2023-05-14T23:16:02.516Z,14.75
2023-05-14T23:18:30.897Z,13.30
2023-05-14T23:20:58.381Z,13.45
2023-05-14T23:23:25.657Z,13.70
2023-05-14T23:25:53.407Z,12.10
2023-05-14T23:28:20.371Z,14.68
2023-05-14T23:30:47.451Z,15.40
2023-05-14T23:33:14.670Z,14.35
2023-05-14T23:35:41.906Z,14.13
2023-05-14T23:38:09.281Z,14.15
2023-05-14T23:40:36.463Z,14.43
2023-05-14T23:43:03.486Z,15.07
2023-05-14T23:45:31.162Z,15.70
2023-05-14T23:47:59.173Z,19.88
2023-05-14T23:50:26.487Z,21.77
2023-05-14T23:52:54.918Z,22.77
2023-05-14T23:55:22.418Z,21.00
2023-05-14T23:57:49.785Z,21.83
